createdAt,value
2023-03-18T00:01:53.949Z,64.50
2023-03-18T00:04:20.810Z,64.90
2023-03-18T00:06:47.840Z,64.90
2023-03-18T00:09:15.256Z,65.10
2023-03-18T00:11:41.909Z,64.50
2023-03-18T00:14:11.474Z,64.60
2023-03-18T00:16:38.120Z,64.40
2023-03-18T00:19:04.782Z,64.40
2023-03-18T00:21:31.639Z,64.20
2023-03-18T00:23:58.765Z,64.40
2023-03-18T00:26:27.026Z,64.30
2023-03-18T00:28:55.597Z,64.50
2023-03-18T00:31:22.256Z,64.60
2023-03-18T00:33:50.353Z,64.70
2023-03-18T00:36:18.425Z,64.40
2023-03-18T00:38:46.292Z,64.60
2023-03-18T00:41:15.698Z,65.00
2023-03-18T00:43:46.857Z,65.00
2023-03-18T00:46:16.145Z,64.90
2023-03-18T00:48:43.119Z,64.90
2023-03-18T00:51:13.907Z,64.70
2023-03-18T00:53:41.607Z,65.00
2023-03-18T00:56:08.622Z,65.20
2023-03-18T00:58:36.831Z,65.10
2023-03-18T01:01:06.957Z,65.20
2023-03-18T01:03:33.902Z,65.60
2023-03-18T01:06:02.076Z,65.90
2023-03-18T01:08:30.266Z,65.50
2023-03-18T01:10:57.480Z,65.50
2023-03-18T01:13:25.782Z,65.70
2023-03-18T01:15:52.422Z,65.40
2023-03-18T01:18:18.999Z,65.60
2023-03-18T01:20:45.609Z,65.90
2023-03-18T01:23:12.678Z,65.60
2023-03-18T01:25:40.021Z,65.30
2023-03-18T01:28:07.030Z,65.70
2023-03-18T01:30:35.468Z,65.60
2023-03-18T01:33:04.541Z,65.70
2023-03-18T01:35:32.770Z,65.60
2023-03-18T01:40:26.783Z,65.90
2023-03-18T01:42:56.599Z,65.80
2023-03-18T01:45:25.729Z,65.90
2023-03-18T01:47:52.448Z,65.80
2023-03-18T01:50:21.824Z,66.20
2023-03-18T01:52:49.478Z,65.80
2023-03-18T01:55:18.946Z,65.80
2023-03-18T01:57:46.754Z,65.80
2023-03-18T02:00:15.547Z,65.80
2023-03-18T02:02:43.144Z,66.10
2023-03-18T02:05:11.275Z,66.10
2023-03-18T02:07:38.539Z,65.70
2023-03-18T02:12:40.097Z,66.00
2023-03-18T02:15:10.428Z,65.80
2023-03-18T02:17:40.810Z,65.90
2023-03-18T02:20:07.444Z,66.10
2023-03-18T02:22:38.333Z,66.10
2023-03-18T02:25:05.181Z,65.80
2023-03-18T02:27:33.957Z,66.00
2023-03-18T02:30:02.911Z,66.10
2023-03-18T02:32:30.750Z,66.00
2023-03-18T02:34:59.258Z,65.70
2023-03-18T02:37:25.964Z,66.00
2023-03-18T02:39:55.134Z,65.80
2023-03-18T02:42:31.420Z,65.80
2023-03-18T02:44:58.440Z,65.90
2023-03-18T02:47:26.283Z,65.60
2023-03-18T02:49:53.472Z,65.90
2023-03-18T02:52:20.045Z,65.80
2023-03-18T02:54:46.844Z,65.80
2023-03-18T02:57:13.444Z,65.90
2023-03-18T02:59:40.061Z,65.90
2023-03-18T03:02:07.089Z,65.80
2023-03-18T03:04:33.673Z,65.90
2023-03-18T03:07:01.494Z,66.10
2023-03-18T03:09:28.740Z,65.80
2023-03-18T03:11:55.474Z,66.20
2023-03-18T03:14:22.305Z,65.90
2023-03-18T03:16:49.516Z,66.50
2023-03-18T03:19:16.146Z,66.10
2023-03-18T03:21:43.197Z,66.40
2023-03-18T03:24:10.023Z,66.20
2023-03-18T03:26:36.670Z,66.20
2023-03-18T03:29:04.487Z,66.20
2023-03-18T03:31:31.696Z,66.30
2023-03-18T03:33:58.699Z,66.10
2023-03-18T03:36:26.085Z,66.50
2023-03-18T03:38:52.716Z,66.70
2023-03-18T03:41:19.586Z,66.60
2023-03-18T03:43:46.206Z,66.60
2023-03-18T03:46:12.921Z,66.40
2023-03-18T03:48:39.690Z,66.40
2023-03-18T03:51:07.004Z,66.50
2023-03-18T03:53:34.029Z,66.50
2023-03-18T03:56:00.945Z,66.50
2023-03-18T03:58:27.790Z,66.30
2023-03-18T04:00:54.425Z,66.80
2023-03-18T04:03:21.014Z,66.60
2023-03-18T04:05:47.813Z,66.80
2023-03-18T04:08:14.461Z,66.90
2023-03-18T04:10:41.095Z,66.90
2023-03-18T04:13:07.708Z,66.60
2023-03-18T04:15:34.919Z,66.70
2023-03-18T04:18:06.726Z,66.50
2023-03-18T04:20:37.561Z,66.70
2023-03-18T04:23:04.419Z,66.90
2023-03-18T04:25:31.054Z,66.80
2023-03-18T04:27:57.764Z,66.80
2023-03-18T04:30:25.566Z,66.80
2023-03-18T04:32:52.722Z,67.10
2023-03-18T04:35:19.718Z,67.20
2023-03-18T04:37:46.377Z,67.10
2023-03-18T04:40:13.101Z,67.00
2023-03-18T04:42:39.819Z,67.00
2023-03-18T04:45:06.754Z,67.40
2023-03-18T04:47:34.560Z,67.20
2023-03-18T04:50:01.622Z,67.00
2023-03-18T04:52:28.195Z,67.40
2023-03-18T04:54:54.866Z,67.80
2023-03-18T04:57:21.567Z,68.00
2023-03-18T04:59:48.236Z,68.20
2023-03-18T05:02:15.521Z,68.10
2023-03-18T05:04:42.676Z,68.10
2023-03-18T05:07:12.421Z,68.00
2023-03-18T05:09:39.015Z,68.30
2023-03-18T05:12:05.748Z,68.20
2023-03-18T05:14:32.860Z,68.30
2023-03-18T05:16:59.733Z,69.00
2023-03-18T05:19:26.338Z,68.40
2023-03-18T05:21:52.910Z,68.60
2023-03-18T05:24:19.495Z,68.60
2023-03-18T05:26:46.142Z,68.70
2023-03-18T05:29:12.825Z,68.70
2023-03-18T05:31:39.463Z,68.80
2023-03-18T05:34:07.136Z,68.90
2023-03-18T05:36:33.710Z,68.90
2023-03-18T05:39:00.307Z,69.00
2023-03-18T05:41:26.928Z,69.00
2023-03-18T05:43:53.798Z,69.10
2023-03-18T05:46:20.423Z,69.10
2023-03-18T05:48:47.284Z,69.90
2023-03-18T05:51:13.918Z,69.50
2023-03-18T05:53:40.989Z,69.40
2023-03-18T05:56:07.810Z,69.40
2023-03-18T05:58:34.503Z,69.30
2023-03-18T06:01:01.134Z,69.30
2023-03-18T06:03:27.997Z,69.40
2023-03-18T06:05:54.651Z,69.40
2023-03-18T06:08:22.249Z,69.30
2023-03-18T06:10:48.846Z,69.60
2023-03-18T06:13:15.448Z,69.40
2023-03-18T06:15:42.108Z,69.40
2023-03-18T06:18:09.355Z,69.40
2023-03-18T06:20:36.261Z,69.50
2023-03-18T06:23:03.622Z,69.20
2023-03-18T06:25:30.360Z,69.40
2023-03-18T06:27:57.195Z,69.70
2023-03-18T06:30:23.877Z,69.80
2023-03-18T06:32:50.705Z,69.80
2023-03-18T06:35:17.415Z,70.00
2023-03-18T06:37:44.033Z,70.20
2023-03-18T06:40:12.155Z,70.90
2023-03-18T06:42:39.282Z,70.10
2023-03-18T06:45:06.232Z,69.90
2023-03-18T06:47:32.905Z,69.90
2023-03-18T06:50:00.219Z,69.80
2023-03-18T06:52:27.568Z,69.90
2023-03-18T06:54:54.399Z,70.10
2023-03-18T06:57:21.018Z,69.90
2023-03-18T06:59:48.038Z,70.10
2023-03-18T07:02:15.409Z,69.70
2023-03-18T07:04:42.035Z,69.40
2023-03-18T07:07:08.645Z,69.10
2023-03-18T07:09:36.335Z,69.10
2023-03-18T07:12:03.290Z,69.60
2023-03-18T07:14:30.643Z,69.30
2023-03-18T07:16:57.450Z,68.90
2023-03-18T07:19:24.519Z,69.40
2023-03-18T07:21:51.397Z,68.90
2023-03-18T07:24:18.824Z,69.20
2023-03-18T07:26:45.434Z,68.70
2023-03-18T07:29:12.095Z,68.70
2023-03-18T07:31:38.876Z,69.10
2023-03-18T07:34:05.681Z,69.40
2023-03-18T07:36:32.232Z,69.20
2023-03-18T07:38:59.976Z,69.30
2023-03-18T07:41:26.679Z,69.30
2023-03-18T07:43:53.644Z,69.20
2023-03-18T07:46:20.408Z,69.00
2023-03-18T07:48:50.893Z,68.60
2023-03-18T07:51:17.920Z,67.70
2023-03-18T07:53:45.257Z,67.90
2023-03-18T07:56:11.961Z,68.30
2023-03-18T07:58:38.816Z,68.30
2023-03-18T08:01:06.180Z,68.30
2023-03-18T08:03:33.971Z,67.90
2023-03-18T08:06:01.067Z,67.40
2023-03-18T08:08:28.770Z,66.70
2023-03-18T08:11:00.448Z,66.40
2023-03-18T08:13:27.337Z,66.20
2023-03-18T08:15:54.142Z,65.40
2023-03-18T08:18:20.800Z,65.30
2023-03-18T08:20:48.334Z,65.10
2023-03-18T08:23:15.036Z,64.90
2023-03-18T08:25:42.264Z,64.00
2023-03-18T08:28:08.951Z,63.50
2023-03-18T08:30:35.621Z,64.60
2023-03-18T08:33:02.710Z,63.40
2023-03-18T08:35:29.463Z,63.30
2023-03-18T08:37:56.103Z,63.30
2023-03-18T08:40:22.899Z,63.00
2023-03-18T08:42:49.506Z,63.20
2023-03-18T08:45:16.115Z,62.40
2023-03-18T08:47:42.769Z,61.70
2023-03-18T08:50:09.731Z,62.00
2023-03-18T08:52:38.493Z,62.50
2023-03-18T08:55:06.104Z,62.50
2023-03-18T08:57:33.007Z,62.50
2023-03-18T08:59:59.773Z,62.10
2023-03-18T09:02:27.646Z,62.60
2023-03-18T09:04:55.439Z,63.80
2023-03-18T09:07:22.011Z,63.30
2023-03-18T09:09:48.687Z,63.70
2023-03-18T09:12:15.505Z,63.80
2023-03-18T09:14:43.596Z,63.50
2023-03-18T09:17:10.407Z,64.20
2023-03-18T09:19:37.381Z,64.30
2023-03-18T09:22:04.316Z,64.50
2023-03-18T09:24:31.621Z,64.20
2023-03-18T09:26:59.852Z,63.70
2023-03-18T09:29:27.580Z,63.30
2023-03-18T09:31:55.570Z,62.60
2023-03-18T09:34:22.705Z,62.60
2023-03-18T09:36:51.490Z,61.40
2023-03-18T09:39:21.817Z,61.10
2023-03-18T09:41:57.461Z,61.10
2023-03-18T09:44:31.609Z,60.60
2023-03-18T09:47:18.582Z,58.70
2023-03-18T09:50:09.519Z,59.10
2023-03-18T09:52:39.545Z,57.40
2023-03-18T09:55:18.268Z,56.20
2023-03-18T09:57:46.901Z,55.50
2023-03-18T10:00:24.803Z,55.10
2023-03-18T10:03:11.342Z,55.50
2023-03-18T10:05:50.009Z,55.60
2023-03-18T10:08:23.567Z,53.80
2023-03-18T10:10:50.391Z,54.30
2023-03-18T10:13:25.398Z,53.70
2023-03-18T10:15:56.966Z,53.60
2023-03-18T10:18:23.673Z,54.10
2023-03-18T10:20:50.407Z,53.40
2023-03-18T10:23:17.177Z,53.20
2023-03-18T10:25:48.511Z,53.40
2023-03-18T10:28:26.351Z,54.20
2023-03-18T10:31:07.110Z,53.20
2023-03-18T10:33:48.072Z,52.20
2023-03-18T10:36:14.684Z,51.80
2023-03-18T10:38:44.655Z,52.00
2023-03-18T10:41:22.013Z,50.80
2023-03-18T10:43:50.414Z,50.30
2023-03-18T10:46:18.613Z,48.90
2023-03-18T10:49:02.797Z,49.00
2023-03-18T10:51:29.360Z,48.90
2023-03-18T10:54:04.276Z,47.60
2023-03-18T10:56:31.026Z,46.60
2023-03-18T10:58:58.454Z,45.40
2023-03-18T11:01:28.771Z,44.60
2023-03-18T11:04:03.513Z,45.60
2023-03-18T11:06:47.524Z,46.10
2023-03-18T11:09:18.830Z,46.80
2023-03-18T11:11:46.447Z,47.50
2023-03-18T11:14:15.550Z,47.50
2023-03-18T11:16:50.298Z,48.80
2023-03-18T11:19:29.642Z,50.70
2023-03-18T11:22:14.770Z,50.70
2023-03-18T11:24:44.813Z,50.30
2023-03-18T11:27:14.251Z,48.10
2023-03-18T11:29:44.115Z,46.30
2023-03-18T11:32:38.787Z,46.60
2023-03-18T11:35:06.781Z,45.40
2023-03-18T11:37:34.906Z,45.50
2023-03-18T11:40:13.834Z,45.60
2023-03-18T11:42:44.085Z,46.30
2023-03-18T11:45:26.259Z,45.90
2023-03-18T11:47:54.183Z,45.90
2023-03-18T11:50:25.548Z,45.60
2023-03-18T11:53:17.144Z,47.50
2023-03-18T11:55:48.695Z,47.30
2023-03-18T11:58:33.410Z,48.00
2023-03-18T12:01:06.591Z,47.50
2023-03-18T12:03:36.835Z,47.90
2023-03-18T12:06:16.863Z,48.10
2023-03-18T12:09:05.040Z,47.60
2023-03-18T12:11:52.780Z,46.20
2023-03-18T12:14:35.375Z,45.60
2023-03-18T12:17:10.703Z,46.10
2023-03-18T12:19:37.410Z,45.20
2023-03-18T12:22:06.849Z,45.00
2023-03-18T12:24:45.838Z,45.40
2023-03-18T12:27:20.120Z,46.40
2023-03-18T12:29:58.047Z,48.60
2023-03-18T12:32:43.438Z,48.10
2023-03-18T12:35:42.724Z,46.80
2023-03-18T12:38:27.947Z,47.50
2023-03-18T12:40:57.620Z,47.40
2023-03-18T12:43:28.773Z,46.50
2023-03-18T12:46:10.039Z,47.40
2023-03-18T12:48:44.397Z,47.70
2023-03-18T12:51:21.759Z,48.50
2023-03-18T12:53:50.225Z,49.00
2023-03-18T12:56:21.564Z,50.80
2023-03-18T12:58:51.094Z,50.80
2023-03-18T13:01:24.185Z,50.00
2023-03-18T13:03:53.676Z,48.70
2023-03-18T13:06:20.277Z,48.80
2023-03-18T13:08:50.158Z,47.00
2023-03-18T13:11:19.573Z,46.10
2023-03-18T13:13:49.940Z,45.40
2023-03-18T13:16:18.104Z,46.00
2023-03-18T13:18:46.230Z,44.20
2023-03-18T13:21:14.834Z,43.10
2023-03-18T13:23:47.665Z,42.50
2023-03-18T13:26:33.239Z,43.00
2023-03-18T13:29:00.184Z,46.60
2023-03-18T13:31:45.829Z,45.50
2023-03-18T13:34:18.981Z,44.90
2023-03-18T13:37:04.787Z,42.60
2023-03-18T13:39:40.673Z,42.30
2023-03-18T13:42:14.605Z,41.60
2023-03-18T13:45:05.003Z,41.70
2023-03-18T13:47:32.961Z,42.70
2023-03-18T13:50:01.120Z,41.10
2023-03-18T13:52:35.398Z,40.40
2023-03-18T13:55:21.714Z,41.40
2023-03-18T13:57:57.109Z,40.90
2023-03-18T14:00:26.892Z,41.50
2023-03-18T14:03:05.195Z,41.20
2023-03-18T14:05:32.210Z,41.60
2023-03-18T14:07:59.303Z,43.50
2023-03-18T14:10:26.383Z,42.90
2023-03-18T14:12:53.306Z,43.50
2023-03-18T14:15:26.379Z,46.60
2023-03-18T14:17:55.509Z,47.40
2023-03-18T14:20:23.841Z,47.90
2023-03-18T14:22:52.103Z,50.00
2023-03-18T14:25:21.918Z,52.10
2023-03-18T14:28:06.681Z,53.20
2023-03-18T14:30:37.019Z,50.10
2023-03-18T14:33:03.741Z,46.50
2023-03-18T14:35:34.346Z,45.20
2023-03-18T14:38:04.212Z,45.10
2023-03-18T14:40:35.098Z,43.70
2023-03-18T14:43:06.753Z,43.70
2023-03-18T14:45:39.041Z,46.50
2023-03-18T14:48:14.682Z,49.20
2023-03-18T14:50:44.394Z,50.60
2023-03-18T14:53:29.617Z,53.60
2023-03-18T14:55:57.451Z,55.00
2023-03-18T14:58:24.489Z,56.10
2023-03-18T15:00:53.307Z,57.10
2023-03-18T15:03:24.270Z,54.80
2023-03-18T15:05:51.264Z,54.10
2023-03-18T15:08:22.465Z,55.10
2023-03-18T15:10:50.333Z,56.40
2023-03-18T15:13:19.038Z,57.80
2023-03-18T15:15:45.946Z,59.00
2023-03-18T15:18:28.757Z,59.40
2023-03-18T15:20:56.830Z,59.80
2023-03-18T15:23:38.234Z,59.30
2023-03-18T15:26:09.897Z,56.60
2023-03-18T15:28:36.613Z,55.00
2023-03-18T15:31:05.689Z,54.50
2023-03-18T15:33:36.576Z,52.40
2023-03-18T15:36:05.902Z,51.00
2023-03-18T15:38:33.885Z,51.00
2023-03-18T15:41:09.655Z,49.90
2023-03-18T15:43:40.406Z,50.70
2023-03-18T15:46:13.663Z,52.00
2023-03-18T15:48:41.988Z,52.80
2023-03-18T15:51:23.073Z,53.60
2023-03-18T15:53:52.158Z,54.50
2023-03-18T15:56:24.052Z,56.70
2023-03-18T15:58:57.422Z,59.50
2023-03-18T16:01:24.568Z,59.60
2023-03-18T16:03:51.396Z,60.00
2023-03-18T16:06:18.014Z,59.50
2023-03-18T16:08:46.130Z,60.10
2023-03-18T16:11:14.324Z,60.70
2023-03-18T16:13:43.371Z,61.50
2023-03-18T16:16:15.413Z,61.60
2023-03-18T16:18:43.318Z,62.00
2023-03-18T16:21:13.302Z,62.10
2023-03-18T16:23:40.821Z,63.10
2023-03-18T16:26:15.983Z,62.50
2023-03-18T16:28:44.550Z,63.00
2023-03-18T16:31:12.766Z,63.60
2023-03-18T16:33:41.429Z,63.50
2023-03-18T16:36:16.539Z,64.00
2023-03-18T16:38:45.960Z,64.50
2023-03-18T16:41:12.546Z,64.60
2023-03-18T16:43:39.123Z,64.20
2023-03-18T16:46:06.256Z,64.70
2023-03-18T16:48:33.091Z,64.80
2023-03-18T16:51:02.422Z,65.30
2023-03-18T16:53:30.366Z,65.60
2023-03-18T16:55:58.361Z,66.20
2023-03-18T16:58:28.082Z,66.50
2023-03-18T17:00:54.748Z,66.90
2023-03-18T17:03:21.374Z,67.00
2023-03-18T17:05:50.503Z,67.30
2023-03-18T17:08:18.187Z,67.20
2023-03-18T17:10:45.368Z,67.50
2023-03-18T17:13:16.433Z,67.90
2023-03-18T17:15:44.771Z,68.20
2023-03-18T17:18:13.283Z,68.80
2023-03-18T17:20:41.336Z,69.20
2023-03-18T17:23:09.812Z,69.30
2023-03-18T17:25:36.467Z,69.50
2023-03-18T17:28:04.640Z,69.80
2023-03-18T17:30:39.373Z,70.40
2023-03-18T17:33:18.443Z,70.30
2023-03-18T17:35:45.238Z,70.70
2023-03-18T17:38:13.844Z,71.00
2023-03-18T17:40:42.668Z,71.20
2023-03-18T17:43:16.696Z,71.50
2023-03-18T17:45:43.250Z,72.10
2023-03-18T17:48:12.904Z,72.30
2023-03-18T17:50:42.882Z,72.30
2023-03-18T17:53:19.130Z,72.60
2023-03-18T17:55:45.718Z,72.70
2023-03-18T17:58:17.803Z,73.00
2023-03-18T18:00:45.239Z,73.30
2023-03-18T18:03:19.220Z,73.80
2023-03-18T18:05:45.918Z,74.00
2023-03-18T18:08:17.814Z,73.90
2023-03-18T18:10:45.329Z,74.20
2023-03-18T18:13:22.601Z,74.50
2023-03-18T18:15:50.682Z,75.10
2023-03-18T18:18:24.612Z,75.60
2023-03-18T18:20:53.120Z,76.20
2023-03-18T18:23:30.473Z,76.00
2023-03-18T18:25:58.727Z,76.30
2023-03-18T18:28:29.304Z,76.70
2023-03-18T18:30:56.067Z,76.90
2023-03-18T18:33:22.765Z,77.20
2023-03-18T18:35:49.487Z,77.60
2023-03-18T18:38:16.168Z,78.10
2023-03-18T18:40:42.833Z,78.20
2023-03-18T18:43:09.496Z,78.50
2023-03-18T18:45:36.262Z,78.60
2023-03-18T18:48:10.725Z,78.80
2023-03-18T18:50:37.590Z,79.10
2023-03-18T18:53:13.152Z,79.20
2023-03-18T18:55:40.012Z,79.40
2023-03-18T18:58:09.300Z,80.10
2023-03-18T19:00:35.972Z,80.20
2023-03-18T19:03:03.060Z,80.50
2023-03-18T19:05:29.661Z,80.70
2023-03-18T19:07:57.917Z,81.00
2023-03-18T19:10:24.888Z,81.30
2023-03-18T19:12:51.531Z,81.40
2023-03-18T19:15:21.370Z,81.60
2023-03-18T19:17:47.991Z,82.00
2023-03-18T19:20:26.091Z,82.40
2023-03-18T19:22:53.086Z,82.50
2023-03-18T19:25:19.867Z,82.90
2023-03-18T19:27:46.662Z,83.20
2023-03-18T19:30:20.332Z,83.30
2023-03-18T19:32:47.004Z,83.50
2023-03-18T19:35:13.666Z,83.90
2023-03-18T19:37:42.061Z,84.20
2023-03-18T19:40:20.709Z,84.40
2023-03-18T19:42:47.302Z,84.80
2023-03-18T19:45:14.403Z,85.20
2023-03-18T19:47:42.040Z,85.70
2023-03-18T19:50:16.441Z,86.10
2023-03-18T19:52:43.380Z,86.60
2023-03-18T19:55:14.366Z,86.80
2023-03-18T19:57:42.863Z,87.30
2023-03-18T20:00:17.447Z,87.80
2023-03-18T20:02:44.712Z,88.20
2023-03-18T20:05:16.396Z,88.90
2023-03-18T20:07:43.172Z,89.00
2023-03-18T20:10:11.211Z,89.60
2023-03-18T20:12:39.004Z,89.70
2023-03-18T20:15:07.783Z,90.00
2023-03-18T20:17:38.882Z,90.20
2023-03-18T20:20:07.343Z,90.20
2023-03-18T20:22:38.775Z,90.40
2023-03-18T20:25:08.292Z,90.50
2023-03-18T20:27:34.979Z,90.70
2023-03-18T20:30:01.635Z,90.70
2023-03-18T20:32:28.254Z,90.70
2023-03-18T20:34:54.916Z,90.70
2023-03-18T20:37:35.920Z,90.80
2023-03-18T20:40:04.024Z,91.00
2023-03-18T20:42:30.805Z,91.00
2023-03-18T20:44:57.422Z,91.10
2023-03-18T20:47:24.099Z,91.00
2023-03-18T20:49:50.666Z,90.90
2023-03-18T20:52:25.857Z,90.90
2023-03-18T20:54:52.836Z,90.70
2023-03-18T20:57:19.512Z,90.50
2023-03-18T20:59:46.635Z,90.40
2023-03-18T21:02:30.547Z,90.70
2023-03-18T21:04:57.765Z,90.30
2023-03-18T21:07:24.779Z,90.40
2023-03-18T21:09:51.981Z,90.70
2023-03-18T21:12:19.784Z,90.50
2023-03-18T21:14:46.808Z,90.70
2023-03-18T21:17:20.839Z,90.80
2023-03-18T21:19:51.435Z,90.80
2023-03-18T21:22:22.407Z,90.90
2023-03-18T21:24:49.566Z,91.10
2023-03-18T21:27:20.475Z,91.20
2023-03-18T21:29:48.481Z,91.20
2023-03-18T21:32:22.983Z,91.50
2023-03-18T21:34:50.344Z,91.60
2023-03-18T21:37:18.003Z,91.70
2023-03-18T21:39:44.925Z,91.90
2023-03-18T21:42:17.323Z,92.20
2023-03-18T21:44:44.399Z,92.60
2023-03-18T21:47:12.833Z,92.90
2023-03-18T21:49:39.430Z,93.10
2023-03-18T21:52:05.999Z,93.40
2023-03-18T21:54:32.613Z,93.60
2023-03-18T21:56:59.241Z,94.00
2023-03-18T21:59:27.018Z,94.00
2023-03-18T22:01:53.736Z,94.20
2023-03-18T22:04:20.393Z,94.40
2023-03-18T22:06:46.967Z,94.70
2023-03-18T22:09:13.569Z,94.80
2023-03-18T22:11:40.168Z,95.00
2023-03-18T22:14:06.742Z,95.20
2023-03-18T22:16:33.314Z,95.60
2023-03-18T22:18:59.952Z,95.70
2023-03-18T22:21:27.500Z,96.10
2023-03-18T22:23:54.412Z,96.10
2023-03-18T22:26:21.189Z,96.20
2023-03-18T22:28:49.580Z,96.50
2023-03-18T22:31:18.175Z,96.70
2023-03-18T22:33:44.910Z,96.90
2023-03-18T22:36:12.262Z,96.70
2023-03-18T22:38:38.928Z,96.90
2023-03-18T22:41:06.047Z,96.80
2023-03-18T22:43:36.366Z,96.80
2023-03-18T22:46:04.369Z,96.90
2023-03-18T22:48:31.223Z,96.90
2023-03-18T22:50:59.381Z,97.00
2023-03-18T22:53:28.198Z,97.20
2023-03-18T22:55:56.084Z,96.90
2023-03-18T22:58:27.189Z,96.70
2023-03-18T23:00:54.346Z,96.60
2023-03-18T23:03:22.630Z,96.90
2023-03-18T23:05:50.468Z,97.00
2023-03-18T23:08:17.416Z,97.30
2023-03-18T23:10:44.370Z,97.50
2023-03-18T23:13:18.494Z,97.20
2023-03-18T23:15:45.529Z,97.10
2023-03-18T23:18:14.281Z,97.20
2023-03-18T23:20:41.493Z,96.40
2023-03-18T23:23:08.125Z,96.80
2023-03-18T23:25:35.221Z,96.90
2023-03-18T23:28:02.173Z,97.00
2023-03-18T23:30:29.016Z,96.80
2023-03-18T23:32:56.867Z,96.60
2023-03-18T23:35:23.563Z,96.40
2023-03-18T23:37:50.245Z,96.50
2023-03-18T23:40:17.544Z,96.90
2023-03-18T23:42:44.474Z,96.90
2023-03-18T23:45:11.765Z,96.60
2023-03-18T23:47:38.785Z,96.40
2023-03-18T23:50:06.016Z,96.60
2023-03-18T23:52:32.673Z,96.80
2023-03-18T23:54:59.314Z,97.00
2023-03-18T23:57:26.655Z,96.90
2023-03-18T23:59:53.409Z,96.60
